Route Details

Aircraft Information
Group: North America Fleet
Types: B738, B752, B762, B763
Route Data
Distance: 1148nm
Duration: 3h 10m
Origin METAR: KMSP 010553Z 23006KT 10SM BKN100 M13/M19 A3017 RMK AO2 SLP236 4/010 T11281189 11122 21133 411221222 56003
Dest. METAR: KLAL 010615Z AUTO 00000KT 10SM SCT055 17/16 A3018 RMK AO2 T01650158
Freight Data
(for Feb 1, 2023)
Load Factor:
51%
Manifested Cargo: 50,449lbs
Financial History
Total Freight: 46,211lbs
Average Load: 0lbs/flt
Fuel Used: 24,836lbs
Avg. Fuel Used: 0lbs/flt
Fuel Expense: $14,405
Avg. Fuel Expense: $0
Avg. Fuel Cost: $0/lbs
Total Gross Income: $121,073
Pilot Pay: $269
Total Expenses: $23,750
Total Revenue: $81,783
Average Revenue: $0

Capitol Logistics 387




KMSP
Minneapolis-St Paul International Airport
Minneapolis, Minnesota
KLAL
Lakeland Linder Regional Airport
Lakeland, Florida

Activity Log

Date Flight Route Aircraft Duration
11/26/2022 CPX387 ZMBRO7 ODI J30 JOT DCT BVT J89 IIU DCT LORNN Q65 KERLY DCT KYYUU LUBBR3 B762 2h 58m